sensor_id;sensor_type;location;lat;lon;timestamp;temperature;humidity
17968;DHT22;9109;48.050;11.696;2023-06-22T04:05:38;22.10;98.50
17968;DHT22;9109;48.050;11.696;2023-06-22T04:08:40;22.10;98.70
17968;DHT22;9109;48.050;11.696;2023-06-22T04:11:42;22.10;98.70
17968;DHT22;9109;48.050;11.696;2023-06-22T04:14:44;22.00;99.90
17968;DHT22;9109;48.050;11.696;2023-06-22T04:17:46;21.70;99.90
17968;DHT22;9109;48.050;11.696;2023-06-22T04:20:49;21.60;99.90
17968;DHT22;9109;48.050;11.696;2023-06-22T04:23:51;21.40;99.90
17968;DHT22;9109;48.050;11.696;2023-06-22T04:26:53;21.30;99.90
17968;DHT22;9109;48.050;11.696;2023-06-22T04:29:55;21.20;99.90
17968;DHT22;9109;48.050;11.696;2023-06-22T04:32:57;21.20;99.90
17968;DHT22;9109;48.050;11.696;2023-06-22T04:36:00;21.40;99.90
17968;DHT22;9109;48.050;11.696;2023-06-22T04:39:03;21.60;99.90
17968;DHT22;9109;48.050;11.696;2023-06-22T04:42:05;21.70;99.90
17968;DHT22;9109;48.050;11.696;2023-06-22T04:45:08;21.60;99.90
17968;DHT22;9109;48.050;11.696;2023-06-22T04:48:11;21.60;99.90
17968;DHT22;9109;48.050;11.696;2023-06-22T04:51:17;21.50;99.90
17968;DHT22;9109;48.050;11.696;2023-06-22T04:54:22;21.60;99.90
17968;DHT22;9109;48.050;11.696;2023-06-22T04:57:24;21.80;99.90
17968;DHT22;9109;48.050;11.696;2023-06-22T05:00:32;21.90;99.90
17968;DHT22;9109;48.050;11.696;2023-06-22T05:03:36;21.90;99.90
17968;DHT22;9109;48.050;11.696;2023-06-22T05:06:43;21.60;99.90
17968;DHT22;9109;48.050;11.696;2023-06-22T05:09:46;21.60;99.90
17968;DHT22;9109;48.050;11.696;2023-06-22T05:12:47;21.50;99.90
17968;DHT22;9109;48.050;11.696;2023-06-22T05:15:49;21.60;99.90
17968;DHT22;9109;48.050;11.696;2023-06-22T05:18:52;21.60;99.90
17968;DHT22;9109;48.050;11.696;2023-06-22T05:21:56;21.60;99.90
17968;DHT22;9109;48.050;11.696;2023-06-22T05:24:58;21.70;99.90
17968;DHT22;9109;48.050;11.696;2023-06-22T05:28:00;21.70;99.90
17968;DHT22;9109;48.050;11.696;2023-06-22T05:31:02;21.90;99.90
17968;DHT22;9109;48.050;11.696;2023-06-22T05:34:04;21.90;99.90
17968;DHT22;9109;48.050;11.696;2023-06-22T05:37:07;21.90;99.90
17968;DHT22;9109;48.050;11.696;2023-06-22T05:40:11;22.10;99.90
17968;DHT22;9109;48.050;11.696;2023-06-22T05:43:13;22.30;99.90
17968;DHT22;9109;48.050;11.696;2023-06-22T05:46:17;22.40;99.90
17968;DHT22;9109;48.050;11.696;2023-06-22T05:49:22;22.40;99.90
17968;DHT22;9109;48.050;11.696;2023-06-22T05:52:26;22.60;99.90
17968;DHT22;9109;48.050;11.696;2023-06-22T05:55:28;22.70;99.90
17968;DHT22;9109;48.050;11.696;2023-06-22T05:58:30;22.90;99.90
17968;DHT22;9109;48.050;11.696;2023-06-22T06:01:32;23.00;99.90
17968;DHT22;9109;48.050;11.696;2023-06-22T06:04:36;22.90;99.90
17968;DHT22;9109;48.050;11.696;2023-06-22T06:07:39;23.10;99.90
17968;DHT22;9109;48.050;11.696;2023-06-22T06:10:41;23.20;99.90
17968;DHT22;9109;48.050;11.696;2023-06-22T06:13:43;23.30;99.90
17968;DHT22;9109;48.050;11.696;2023-06-22T06:16:46;23.50;99.90
17968;DHT22;9109;48.050;11.696;2023-06-22T06:19:47;23.50;99.90
17968;DHT22;9109;48.050;11.696;2023-06-22T06:22:51;23.70;99.90
17968;DHT22;9109;48.050;11.696;2023-06-22T06:25:53;23.80;99.90
17968;DHT22;9109;48.050;11.696;2023-06-22T06:28:56;23.80;99.90
17968;DHT22;9109;48.050;11.696;2023-06-22T06:31:57;23.80;99.90
17968;DHT22;9109;48.050;11.696;2023-06-22T06:34:59;24.00;99.90
17968;DHT22;9109;48.050;11.696;2023-06-22T06:38:03;24.20;99.10
17968;DHT22;9109;48.050;11.696;2023-06-22T06:41:04;24.40;98.60
17968;DHT22;9109;48.050;11.696;2023-06-22T06:44:06;24.50;98.30
17968;DHT22;9109;48.050;11.696;2023-06-22T06:47:08;24.70;97.90
17968;DHT22;9109;48.050;11.696;2023-06-22T06:50:11;24.90;97.40
17968;DHT22;9109;48.050;11.696;2023-06-22T06:53:15;25.00;96.70
17968;DHT22;9109;48.050;11.696;2023-06-22T06:56:17;25.10;96.10
17968;DHT22;9109;48.050;11.696;2023-06-22T06:59:19;25.10;95.50
17968;DHT22;9109;48.050;11.696;2023-06-22T07:02:20;25.20;95.20
17968;DHT22;9109;48.050;11.696;2023-06-22T07:05:23;25.30;94.70
17968;DHT22;9109;48.050;11.696;2023-06-22T07:08:26;25.40;93.60
17968;DHT22;9109;48.050;11.696;2023-06-22T07:11:28;25.50;93.20
17968;DHT22;9109;48.050;11.696;2023-06-22T07:14:30;25.60;93.50
17968;DHT22;9109;48.050;11.696;2023-06-22T07:17:32;25.60;92.80
17968;DHT22;9109;48.050;11.696;2023-06-22T07:20:34;25.40;93.30
17968;DHT22;9109;48.050;11.696;2023-06-22T07:23:37;25.40;93.70
17968;DHT22;9109;48.050;11.696;2023-06-22T07:26:39;25.50;93.80
17968;DHT22;9109;48.050;11.696;2023-06-22T07:29:46;25.60;92.80
17968;DHT22;9109;48.050;11.696;2023-06-22T07:32:50;25.80;91.50
17968;DHT22;9109;48.050;11.696;2023-06-22T07:35:52;26.00;91.00
17968;DHT22;9109;48.050;11.696;2023-06-22T07:38:56;26.20;90.30
17968;DHT22;9109;48.050;11.696;2023-06-22T07:41:57;26.30;90.70
17968;DHT22;9109;48.050;11.696;2023-06-22T07:44:59;26.30;90.50
17968;DHT22;9109;48.050;11.696;2023-06-22T07:48:03;26.40;88.60
17968;DHT22;9109;48.050;11.696;2023-06-22T07:51:05;26.60;89.10
17968;DHT22;9109;48.050;11.696;2023-06-22T07:54:09;26.80;87.70
17968;DHT22;9109;48.050;11.696;2023-06-22T07:57:11;27.00;86.50
17968;DHT22;9109;48.050;11.696;2023-06-22T08:00:13;27.00;84.70
17968;DHT22;9109;48.050;11.696;2023-06-22T08:03:17;27.00;84.40
17968;DHT22;9109;48.050;11.696;2023-06-22T08:06:19;27.20;83.80
17968;DHT22;9109;48.050;11.696;2023-06-22T08:09:23;27.30;83.10
17968;DHT22;9109;48.050;11.696;2023-06-22T08:12:25;27.50;82.00
17968;DHT22;9109;48.050;11.696;2023-06-22T08:15:26;27.50;81.50
17968;DHT22;9109;48.050;11.696;2023-06-22T08:18:28;27.60;81.80
17968;DHT22;9109;48.050;11.696;2023-06-22T08:21:30;27.70;82.00
17968;DHT22;9109;48.050;11.696;2023-06-22T08:24:34;27.90;81.00
17968;DHT22;9109;48.050;11.696;2023-06-22T08:27:36;28.00;80.10
17968;DHT22;9109;48.050;11.696;2023-06-22T08:30:38;28.10;79.60
17968;DHT22;9109;48.050;11.696;2023-06-22T08:33:40;28.20;78.10
17968;DHT22;9109;48.050;11.696;2023-06-22T08:36:43;28.10;78.10
17968;DHT22;9109;48.050;11.696;2023-06-22T08:39:53;28.00;79.60
17968;DHT22;9109;48.050;11.696;2023-06-22T08:42:55;28.10;78.50
17968;DHT22;9109;48.050;11.696;2023-06-22T08:45:57;28.10;76.40
17968;DHT22;9109;48.050;11.696;2023-06-22T08:48:59;28.10;78.30
17968;DHT22;9109;48.050;11.696;2023-06-22T08:52:01;28.20;77.90
17968;DHT22;9109;48.050;11.696;2023-06-22T08:55:06;28.40;76.90
17968;DHT22;9109;48.050;11.696;2023-06-22T08:58:08;28.60;76.80
17968;DHT22;9109;48.050;11.696;2023-06-22T09:01:10;28.60;77.30
17968;DHT22;9109;48.050;11.696;2023-06-22T09:04:12;28.70;75.40
17968;DHT22;9109;48.050;11.696;2023-06-22T09:07:14;28.80;73.60
17968;DHT22;9109;48.050;11.696;2023-06-22T09:10:24;28.80;74.00
17968;DHT22;9109;48.050;11.696;2023-06-22T09:13:30;29.00;75.10
17968;DHT22;9109;48.050;11.696;2023-06-22T09:16:33;29.20;72.20
17968;DHT22;9109;48.050;11.696;2023-06-22T09:19:35;29.30;72.50
17968;DHT22;9109;48.050;11.696;2023-06-22T09:22:37;29.20;71.90
17968;DHT22;9109;48.050;11.696;2023-06-22T09:25:40;29.30;73.90
17968;DHT22;9109;48.050;11.696;2023-06-22T09:28:42;29.20;72.60
17968;DHT22;9109;48.050;11.696;2023-06-22T09:31:44;29.20;74.70
17968;DHT22;9109;48.050;11.696;2023-06-22T09:34:46;29.30;74.80
17968;DHT22;9109;48.050;11.696;2023-06-22T09:37:49;29.40;74.10
17968;DHT22;9109;48.050;11.696;2023-06-22T09:40:52;29.50;74.20
17968;DHT22;9109;48.050;11.696;2023-06-22T09:43:54;29.50;73.70
17968;DHT22;9109;48.050;11.696;2023-06-22T09:46:56;29.60;72.80
17968;DHT22;9109;48.050;11.696;2023-06-22T09:49:58;29.50;72.80
17968;DHT22;9109;48.050;11.696;2023-06-22T09:53:00;29.50;72.70
17968;DHT22;9109;48.050;11.696;2023-06-22T09:56:04;29.70;72.00
17968;DHT22;9109;48.050;11.696;2023-06-22T09:59:06;30.00;70.60
17968;DHT22;9109;48.050;11.696;2023-06-22T10:02:08;30.30;68.70
17968;DHT22;9109;48.050;11.696;2023-06-22T10:05:10;30.30;68.10
17968;DHT22;9109;48.050;11.696;2023-06-22T10:08:12;30.40;67.60
17968;DHT22;9109;48.050;11.696;2023-06-22T10:11:16;30.50;67.60
17968;DHT22;9109;48.050;11.696;2023-06-22T10:14:17;30.70;67.10
17968;DHT22;9109;48.050;11.696;2023-06-22T10:17:19;30.90;67.10
17968;DHT22;9109;48.050;11.696;2023-06-22T10:20:21;31.20;66.30
17968;DHT22;9109;48.050;11.696;2023-06-22T10:23:24;31.20;65.70
17968;DHT22;9109;48.050;11.696;2023-06-22T10:26:27;31.20;64.00
17968;DHT22;9109;48.050;11.696;2023-06-22T10:29:29;31.20;63.70
17968;DHT22;9109;48.050;11.696;2023-06-22T10:32:31;31.30;62.60
17968;DHT22;9109;48.050;11.696;2023-06-22T10:35:33;31.20;63.10
17968;DHT22;9109;48.050;11.696;2023-06-22T10:38:35;31.40;61.60
17968;DHT22;9109;48.050;11.696;2023-06-22T10:41:39;31.50;61.60
17968;DHT22;9109;48.050;11.696;2023-06-22T10:44:40;31.60;61.40
17968;DHT22;9109;48.050;11.696;2023-06-22T10:47:44;31.50;59.80
17968;DHT22;9109;48.050;11.696;2023-06-22T10:50:49;31.80;60.00
17968;DHT22;9109;48.050;11.696;2023-06-22T10:53:51;32.00;60.50
17968;DHT22;9109;48.050;11.696;2023-06-22T10:56:54;32.00;58.40
17968;DHT22;9109;48.050;11.696;2023-06-22T10:59:56;32.00;58.30
17968;DHT22;9109;48.050;11.696;2023-06-22T11:02:58;32.20;58.00
17968;DHT22;9109;48.050;11.696;2023-06-22T11:06:00;32.40;57.10
17968;DHT22;9109;48.050;11.696;2023-06-22T11:09:02;32.40;56.00
17968;DHT22;9109;48.050;11.696;2023-06-22T11:12:07;32.50;56.30
17968;DHT22;9109;48.050;11.696;2023-06-22T11:15:09;32.50;55.70
17968;DHT22;9109;48.050;11.696;2023-06-22T11:18:11;32.50;55.80
17968;DHT22;9109;48.050;11.696;2023-06-22T11:21:13;32.50;56.70
17968;DHT22;9109;48.050;11.696;2023-06-22T11:24:15;32.50;56.90
17968;DHT22;9109;48.050;11.696;2023-06-22T11:27:19;32.50;56.40
17968;DHT22;9109;48.050;11.696;2023-06-22T11:30:21;32.50;57.60
17968;DHT22;9109;48.050;11.696;2023-06-22T11:33:23;32.60;56.80
17968;DHT22;9109;48.050;11.696;2023-06-22T11:36:28;32.60;56.40
17968;DHT22;9109;48.050;11.696;2023-06-22T11:39:36;32.70;56.10
17968;DHT22;9109;48.050;11.696;2023-06-22T11:42:39;32.90;56.30
17968;DHT22;9109;48.050;11.696;2023-06-22T11:45:41;33.00;56.00
17968;DHT22;9109;48.050;11.696;2023-06-22T11:48:43;33.20;56.20
17968;DHT22;9109;48.050;11.696;2023-06-22T11:51:46;33.30;56.70
17968;DHT22;9109;48.050;11.696;2023-06-22T11:54:48;33.40;55.20
17968;DHT22;9109;48.050;11.696;2023-06-22T11:57:55;33.50;56.20
17968;DHT22;9109;48.050;11.696;2023-06-22T12:00:59;33.50;55.00
17968;DHT22;9109;48.050;11.696;2023-06-22T12:04:01;33.60;54.30
17968;DHT22;9109;48.050;11.696;2023-06-22T12:07:05;33.50;54.60
17968;DHT22;9109;48.050;11.696;2023-06-22T12:10:08;33.60;53.10
17968;DHT22;9109;48.050;11.696;2023-06-22T12:13:11;33.60;51.80
17968;DHT22;9109;48.050;11.696;2023-06-22T12:16:13;33.40;53.30
17968;DHT22;9109;48.050;11.696;2023-06-22T12:19:15;33.40;54.20
17968;DHT22;9109;48.050;11.696;2023-06-22T12:22:17;33.50;53.80
17968;DHT22;9109;48.050;11.696;2023-06-22T12:25:19;33.80;54.90
17968;DHT22;9109;48.050;11.696;2023-06-22T12:28:23;34.00;53.80
17968;DHT22;9109;48.050;11.696;2023-06-22T12:31:25;33.90;54.60
17968;DHT22;9109;48.050;11.696;2023-06-22T12:34:26;33.80;54.60
17968;DHT22;9109;48.050;11.696;2023-06-22T12:37:28;33.80;54.50
17968;DHT22;9109;48.050;11.696;2023-06-22T12:40:32;34.00;53.40
17968;DHT22;9109;48.050;11.696;2023-06-22T12:43:35;34.10;54.50
17968;DHT22;9109;48.050;11.696;2023-06-22T12:46:37;34.10;53.40
17968;DHT22;9109;48.050;11.696;2023-06-22T12:49:39;34.10;53.90
17968;DHT22;9109;48.050;11.696;2023-06-22T12:52:41;34.30;54.40
17968;DHT22;9109;48.050;11.696;2023-06-22T12:55:43;34.50;53.10
17968;DHT22;9109;48.050;11.696;2023-06-22T12:58:46;34.60;53.60
17968;DHT22;9109;48.050;11.696;2023-06-22T13:01:48;34.70;52.20
17968;DHT22;9109;48.050;11.696;2023-06-22T13:04:50;34.70;52.20
17968;DHT22;9109;48.050;11.696;2023-06-22T13:07:52;34.70;51.60
17968;DHT22;9109;48.050;11.696;2023-06-22T13:10:54;34.70;53.60
17968;DHT22;9109;48.050;11.696;2023-06-22T13:13:58;34.70;52.90
17968;DHT22;9109;48.050;11.696;2023-06-22T13:17:00;34.60;51.50
17968;DHT22;9109;48.050;11.696;2023-06-22T13:20:02;34.60;51.30
17968;DHT22;9109;48.050;11.696;2023-06-22T13:23:05;34.80;51.50
17968;DHT22;9109;48.050;11.696;2023-06-22T13:26:07;34.70;51.10
17968;DHT22;9109;48.050;11.696;2023-06-22T13:29:10;34.60;51.70
17968;DHT22;9109;48.050;11.696;2023-06-22T13:32:12;34.60;52.60
17968;DHT22;9109;48.050;11.696;2023-06-22T13:35:14;34.50;53.70
17968;DHT22;9109;48.050;11.696;2023-06-22T13:38:16;34.40;53.10
17968;DHT22;9109;48.050;11.696;2023-06-22T13:41:18;34.40;53.20
17968;DHT22;9109;48.050;11.696;2023-06-22T13:44:21;34.70;53.00
17968;DHT22;9109;48.050;11.696;2023-06-22T13:47:24;34.80;52.30
17968;DHT22;9109;48.050;11.696;2023-06-22T13:50:25;34.80;52.90
17968;DHT22;9109;48.050;11.696;2023-06-22T13:53:29;34.90;53.10
17968;DHT22;9109;48.050;11.696;2023-06-22T13:56:32;34.80;51.60
17968;DHT22;9109;48.050;11.696;2023-06-22T13:59:36;34.80;52.30
17968;DHT22;9109;48.050;11.696;2023-06-22T14:02:38;34.70;52.00
17968;DHT22;9109;48.050;11.696;2023-06-22T14:05:41;34.70;52.00
17968;DHT22;9109;48.050;11.696;2023-06-22T14:08:43;34.90;51.70
17968;DHT22;9109;48.050;11.696;2023-06-22T14:11:45;35.00;52.10
17968;DHT22;9109;48.050;11.696;2023-06-22T14:14:48;35.00;50.30
17968;DHT22;9109;48.050;11.696;2023-06-22T14:17:50;34.90;50.10
17968;DHT22;9109;48.050;11.696;2023-06-22T14:20:52;34.90;51.10
17968;DHT22;9109;48.050;11.696;2023-06-22T14:23:53;35.00;50.40
17968;DHT22;9109;48.050;11.696;2023-06-22T14:26:55;35.00;51.00
17968;DHT22;9109;48.050;11.696;2023-06-22T14:30:02;34.90;50.60
17968;DHT22;9109;48.050;11.696;2023-06-22T14:33:04;34.60;50.50
17968;DHT22;9109;48.050;11.696;2023-06-22T14:36:06;34.80;50.50
17968;DHT22;9109;48.050;11.696;2023-06-22T14:39:08;35.00;50.20
17968;DHT22;9109;48.050;11.696;2023-06-22T14:42:10;35.10;49.70
17968;DHT22;9109;48.050;11.696;2023-06-22T14:45:14;35.10;49.50
17968;DHT22;9109;48.050;11.696;2023-06-22T14:48:16;35.00;49.00
17968;DHT22;9109;48.050;11.696;2023-06-22T14:51:18;34.90;50.30
17968;DHT22;9109;48.050;11.696;2023-06-22T14:54:20;34.90;49.40
17968;DHT22;9109;48.050;11.696;2023-06-22T14:57:21;34.80;49.00
17968;DHT22;9109;48.050;11.696;2023-06-22T15:00:25;34.70;49.30
17968;DHT22;9109;48.050;11.696;2023-06-22T15:03:27;34.80;48.70
17968;DHT22;9109;48.050;11.696;2023-06-22T15:06:31;34.80;48.80
17968;DHT22;9109;48.050;11.696;2023-06-22T15:09:33;34.70;48.30
17968;DHT22;9109;48.050;11.696;2023-06-22T15:12:35;34.70;47.80
17968;DHT22;9109;48.050;11.696;2023-06-22T15:15:38;34.80;47.50
17968;DHT22;9109;48.050;11.696;2023-06-22T15:18:40;34.90;48.30
17968;DHT22;9109;48.050;11.696;2023-06-22T15:21:43;35.10;48.20
17968;DHT22;9109;48.050;11.696;2023-06-22T15:24:45;34.90;46.10
17968;DHT22;9109;48.050;11.696;2023-06-22T15:27:51;34.90;47.60
17968;DHT22;9109;48.050;11.696;2023-06-22T15:30:54;34.80;47.40
17968;DHT22;9109;48.050;11.696;2023-06-22T15:33:56;34.70;48.30
17968;DHT22;9109;48.050;11.696;2023-06-22T15:36:59;34.80;48.70
17968;DHT22;9109;48.050;11.696;2023-06-22T15:40:01;34.80;49.00
17968;DHT22;9109;48.050;11.696;2023-06-22T15:43:03;34.60;49.80
17968;DHT22;9109;48.050;11.696;2023-06-22T15:46:06;34.40;49.90
17968;DHT22;9109;48.050;11.696;2023-06-22T15:49:08;34.40;51.10
17968;DHT22;9109;48.050;11.696;2023-06-22T15:52:10;34.60;51.70
17968;DHT22;9109;48.050;11.696;2023-06-22T15:55:13;34.50;51.20
17968;DHT22;9109;48.050;11.696;2023-06-22T15:58:15;34.60;50.90
17968;DHT22;9109;48.050;11.696;2023-06-22T16:01:19;34.50;51.10
17968;DHT22;9109;48.050;11.696;2023-06-22T16:04:21;34.70;50.60
17968;DHT22;9109;48.050;11.696;2023-06-22T16:07:23;34.70;49.80
17968;DHT22;9109;48.050;11.696;2023-06-22T16:10:25;34.60;50.60
17968;DHT22;9109;48.050;11.696;2023-06-22T16:13:26;34.60;49.80
17968;DHT22;9109;48.050;11.696;2023-06-22T16:16:30;34.40;49.10
17968;DHT22;9109;48.050;11.696;2023-06-22T16:19:32;34.50;48.00
17968;DHT22;9109;48.050;11.696;2023-06-22T16:22:34;34.50;47.50
17968;DHT22;9109;48.050;11.696;2023-06-22T16:25:36;34.50;47.40
17968;DHT22;9109;48.050;11.696;2023-06-22T16:28:38;34.50;46.90
17968;DHT22;9109;48.050;11.696;2023-06-22T16:31:41;34.20;47.20
17968;DHT22;9109;48.050;11.696;2023-06-22T16:34:43;33.80;47.60
17968;DHT22;9109;48.050;11.696;2023-06-22T16:37:46;33.50;47.80
17968;DHT22;9109;48.050;11.696;2023-06-22T16:40:48;33.30;49.00
17968;DHT22;9109;48.050;11.696;2023-06-22T16:43:50;33.20;49.90
17968;DHT22;9109;48.050;11.696;2023-06-22T16:46:53;33.00;50.50
17968;DHT22;9109;48.050;11.696;2023-06-22T16:49:55;32.70;51.10
17968;DHT22;9109;48.050;11.696;2023-06-22T16:52:57;32.60;51.20
17968;DHT22;9109;48.050;11.696;2023-06-22T16:55:59;32.50;51.40
17968;DHT22;9109;48.050;11.696;2023-06-22T16:59:01;32.40;52.10
17968;DHT22;9109;48.050;11.696;2023-06-22T17:02:05;32.30;52.80
17968;DHT22;9109;48.050;11.696;2023-06-22T17:05:11;32.10;53.00
17968;DHT22;9109;48.050;11.696;2023-06-22T17:08:15;31.90;53.60
17968;DHT22;9109;48.050;11.696;2023-06-22T17:11:18;31.90;54.10
17968;DHT22;9109;48.050;11.696;2023-06-22T17:14:21;32.10;55.50
17968;DHT22;9109;48.050;11.696;2023-06-22T17:17:25;32.00;57.20
17968;DHT22;9109;48.050;11.696;2023-06-22T17:20:29;31.80;63.80
17968;DHT22;9109;48.050;11.696;2023-06-22T17:23:31;30.30;75.00
17968;DHT22;9109;48.050;11.696;2023-06-22T17:26:33;27.30;86.00
17968;DHT22;9109;48.050;11.696;2023-06-22T17:29:35;25.90;88.60
17968;DHT22;9109;48.050;11.696;2023-06-22T17:32:38;25.00;89.50
17968;DHT22;9109;48.050;11.696;2023-06-22T17:35:45;24.40;91.00
17968;DHT22;9109;48.050;11.696;2023-06-22T17:38:48;23.50;90.00
17968;DHT22;9109;48.050;11.696;2023-06-22T17:41:50;22.60;97.80
17968;DHT22;9109;48.050;11.696;2023-06-22T17:44:52;22.00;99.90
17968;DHT22;9109;48.050;11.696;2023-06-22T17:48:03;22.50;99.90
17968;DHT22;9109;48.050;11.696;2023-06-22T17:51:09;22.80;99.90
17968;DHT22;9109;48.050;11.696;2023-06-22T17:54:11;22.70;99.90
17968;DHT22;9109;48.050;11.696;2023-06-22T17:57:17;22.50;99.90
17968;DHT22;9109;48.050;11.696;2023-06-22T18:00:19;22.50;99.90
17968;DHT22;9109;48.050;11.696;2023-06-22T18:03:25;22.80;99.90
17968;DHT22;9109;48.050;11.696;2023-06-22T18:06:27;23.20;99.90
17968;DHT22;9109;48.050;11.696;2023-06-22T18:09:29;23.60;99.90
17968;DHT22;9109;48.050;11.696;2023-06-22T18:12:33;24.00;99.90
17968;DHT22;9109;48.050;11.696;2023-06-22T18:15:40;24.50;99.90
17968;DHT22;9109;48.050;11.696;2023-06-22T18:18:44;24.80;99.90
17968;DHT22;9109;48.050;11.696;2023-06-22T18:21:46;25.00;99.90
17968;DHT22;9109;48.050;11.696;2023-06-22T18:24:49;25.10;99.90
17968;DHT22;9109;48.050;11.696;2023-06-22T18:27:51;25.10;99.90
17968;DHT22;9109;48.050;11.696;2023-06-22T18:30:53;24.90;99.90
17968;DHT22;9109;48.050;11.696;2023-06-22T18:33:57;24.80;99.90
17968;DHT22;9109;48.050;11.696;2023-06-22T18:37:01;24.50;99.90
17968;DHT22;9109;48.050;11.696;2023-06-22T18:40:06;24.40;99.90
17968;DHT22;9109;48.050;11.696;2023-06-22T18:43:10;24.40;99.90
17968;DHT22;9109;48.050;11.696;2023-06-22T18:46:30;24.30;99.90
17968;DHT22;9109;48.050;11.696;2023-06-22T18:49:45;24.30;99.90
17968;DHT22;9109;48.050;11.696;2023-06-22T18:53:01;24.60;99.90
17968;DHT22;9109;48.050;11.696;2023-06-22T18:56:11;24.60;99.90
17968;DHT22;9109;48.050;11.696;2023-06-22T18:59:13;24.70;99.90
17968;DHT22;9109;48.050;11.696;2023-06-22T19:05:41;24.30;99.90
17968;DHT22;9109;48.050;11.696;2023-06-22T19:09:14;24.20;99.90
17968;DHT22;9109;48.050;11.696;2023-06-22T19:12:20;24.00;99.90
17968;DHT22;9109;48.050;11.696;2023-06-22T19:15:30;24.00;99.90
17968;DHT22;9109;48.050;11.696;2023-06-22T19:18:34;23.90;99.90
17968;DHT22;9109;48.050;11.696;2023-06-22T19:21:38;23.80;99.90
17968;DHT22;9109;48.050;11.696;2023-06-22T19:24:48;23.90;99.90
17968;DHT22;9109;48.050;11.696;2023-06-22T19:27:51;23.90;99.90
17968;DHT22;9109;48.050;11.696;2023-06-22T19:30:57;24.00;99.90
17968;DHT22;9109;48.050;11.696;2023-06-22T19:34:01;24.10;99.90
17968;DHT22;9109;48.050;11.696;2023-06-22T19:37:14;23.90;99.90
17968;DHT22;9109;48.050;11.696;2023-06-22T19:40:19;23.80;99.90
17968;DHT22;9109;48.050;11.696;2023-06-22T19:43:22;23.70;99.90
17968;DHT22;9109;48.050;11.696;2023-06-22T19:46:27;23.60;99.90
17968;DHT22;9109;48.050;11.696;2023-06-22T19:49:30;23.60;99.90
17968;DHT22;9109;48.050;11.696;2023-06-22T19:52:38;23.50;99.90
17968;DHT22;9109;48.050;11.696;2023-06-22T19:55:45;23.40;99.90
17968;DHT22;9109;48.050;11.696;2023-06-22T19:58:48;23.30;99.90
17968;DHT22;9109;48.050;11.696;2023-06-22T20:01:53;23.30;99.90
17968;DHT22;9109;48.050;11.696;2023-06-22T20:04:56;23.40;99.90
17968;DHT22;9109;48.050;11.696;2023-06-22T20:08:02;23.30;99.90
17968;DHT22;9109;48.050;11.696;2023-06-22T20:11:06;23.20;99.90
17968;DHT22;9109;48.050;11.696;2023-06-22T20:14:08;23.10;99.90
17968;DHT22;9109;48.050;11.696;2023-06-22T20:17:15;23.10;99.90
17968;DHT22;9109;48.050;11.696;2023-06-22T20:20:23;23.00;99.90
17968;DHT22;9109;48.050;11.696;2023-06-22T20:23:30;22.80;99.90
17968;DHT22;9109;48.050;11.696;2023-06-22T20:27:09;22.70;99.90
17968;DHT22;9109;48.050;11.696;2023-06-22T20:30:40;22.80;99.90
17968;DHT22;9109;48.050;11.696;2023-06-22T20:33:47;22.80;99.90
17968;DHT22;9109;48.050;11.696;2023-06-22T20:37:04;23.00;99.90
17968;DHT22;9109;48.050;11.696;2023-06-22T20:40:19;23.00;99.90
17968;DHT22;9109;48.050;11.696;2023-06-22T20:43:32;23.00;99.90
17968;DHT22;9109;48.050;11.696;2023-06-22T20:46:50;23.00;99.90
17968;DHT22;9109;48.050;11.696;2023-06-22T20:49:55;23.00;99.90
17968;DHT22;9109;48.050;11.696;2023-06-22T20:53:03;22.80;99.90
17968;DHT22;9109;48.050;11.696;2023-06-22T20:56:13;22.60;99.90
17968;DHT22;9109;48.050;11.696;2023-06-22T20:59:15;22.40;99.90
17968;DHT22;9109;48.050;11.696;2023-06-22T21:02:20;22.30;99.90
17968;DHT22;9109;48.050;11.696;2023-06-22T21:05:26;22.30;99.90
17968;DHT22;9109;48.050;11.696;2023-06-22T21:08:32;22.30;99.90
17968;DHT22;9109;48.050;11.696;2023-06-22T21:11:41;22.30;99.90
17968;DHT22;9109;48.050;11.696;2023-06-22T21:14:47;22.30;99.90
17968;DHT22;9109;48.050;11.696;2023-06-22T21:17:52;22.40;99.90
17968;DHT22;9109;48.050;11.696;2023-06-22T21:20:59;22.40;99.90
17968;DHT22;9109;48.050;11.696;2023-06-22T21:24:14;22.10;99.90
17968;DHT22;9109;48.050;11.696;2023-06-22T21:28:02;22.00;99.90
17968;DHT22;9109;48.050;11.696;2023-06-22T21:33:25;22.00;99.90
17968;DHT22;9109;48.050;11.696;2023-06-22T21:35:20;22.10;99.90
17968;DHT22;9109;48.050;11.696;2023-06-22T21:39:58;22.00;99.90
17968;DHT22;9109;48.050;11.696;2023-06-22T21:44:18;21.80;99.90
17968;DHT22;9109;48.050;11.696;2023-06-22T21:46:55;21.80;99.90
17968;DHT22;9109;48.050;11.696;2023-06-22T21:51:52;21.90;99.90
17968;DHT22;9109;48.050;11.696;2023-06-22T21:54:31;22.00;99.90
17968;DHT22;9109;48.050;11.696;2023-06-22T21:58:09;22.10;99.90
17968;DHT22;9109;48.050;11.696;2023-06-22T22:02:07;21.90;99.90
17968;DHT22;9109;48.050;11.696;2023-06-22T22:05:54;21.70;99.90
17968;DHT22;9109;48.050;11.696;2023-06-22T22:16:20;21.30;99.90
17968;DHT22;9109;48.050;11.696;2023-06-22T22:19:49;21.40;99.90
